Wetterdaten: Woche 21.05.12 - 27.05.12 (KW21)
Datum Zeit Temp. A. Feuchte A. Luftdruck Regen Wind Richtung Taupunkt Windchill Windben
21.05.2012 00:00 17,4 C 66 % 1007,4 hPa 0,0 l/m 0,9 km/h N 10,8 C 17,4 C 4,0 km/h
21.05.2012 01:00 18,0 C 64 % 1007,1 hPa 0,0 l/m 1,6 km/h N 11,0 C 18,0 C 6,4 km/h
21.05.2012 02:00 16,7 C 67 % 1006,9 hPa 0,0 l/m 0,0 km/h N 10,4 C 16,7 C 0,8 km/h
21.05.2012 03:00 14,9 C 72 % 1006,7 hPa 0,0 l/m 0,0 km/h N 9,8 C 14,9 C 0,0 km/h
21.05.2012 04:00 13,9 C 76 % 1006,3 hPa 0,0 l/m 0,0 km/h N 9,7 C 13,9 C 1,2 km/h
21.05.2012 05:00 14,2 C 75 % 1006,3 hPa 0,0 l/m 0,7 km/h N 9,7 C 14,2 C 7,2 km/h
21.05.2012 06:00 15,3 C 70 % 1006,5 hPa 0,0 l/m 0,9 km/h N 9,9 C 15,3 C 5,6 km/h
21.05.2012 07:00 16,6 C 68 % 1006,2 hPa 0,0 l/m 0,4 km/h N 10,6 C 16,6 C 3,2 km/h
21.05.2012 08:00 18,6 C 60 % 1005,7 hPa 0,0 l/m 2,8 km/h N 10,7 C 18,6 C 10,5 km/h
21.05.2012 09:00 21,0 C 55 % 1005,3 hPa 0,0 l/m 4,4 km/h N 11,7 C 21,0 C 17,7 km/h
21.05.2012 10:00 22,0 C 54 % 1005,1 hPa 0,0 l/m 5,7 km/h N 12,1 C 21,9 C 21,7 km/h
21.05.2012 11:00 24,3 C 49 % 1004,8 hPa 0,0 l/m 8,9 km/h N 12,7 C 23,7 C 24,5 km/h
21.05.2012 12:00 23,5 C 50 % 1004,7 hPa 0,0 l/m 11,5 km/h N 12,5 C 22,2 C 29,0 km/h
21.05.2012 13:00 24,6 C 50 % 1004,2 hPa 0,0 l/m 11,1 km/h N 13,4 C 23,6 C 30,2 km/h
21.05.2012 14:00 23,5 C 48 % 1004,6 hPa 0,0 l/m 8,6 km/h N 12,0 C 22,9 C 26,5 km/h
21.05.2012 15:00 24,0 C 47 % 1004,6 hPa 0,0 l/m 9,8 km/h N 12,1 C 23,2 C 27,4 km/h
21.05.2012 16:00 23,1 C 50 % 1004,6 hPa 0,0 l/m 8,4 km/h N 12,0 C 22,5 C 23,7 km/h
21.05.2012 17:00 22,3 C 52 % 1004,4 hPa 0,0 l/m 6,7 km/h N 12,0 C 22,0 C 18,9 km/h
21.05.2012 18:00 21,2 C 56 % 1004,2 hPa 0,0 l/m 2,3 km/h N 12,1 C 21,2 C 9,6 km/h
21.05.2012 19:00 20,8 C 59 % 1004,0 hPa 0,0 l/m 0,3 km/h N 12,4 C 20,8 C 3,6 km/h
21.05.2012 20:00 19,9 C 64 % 1004,0 hPa 0,0 l/m 0,0 km/h N 12,9 C 19,9 C 0,0 km/h
21.05.2012 21:00 18,7 C 71 % 1004,1 hPa 0,0 l/m 0,0 km/h N 13,2 C 18,7 C 0,0 km/h
21.05.2012 22:00 17,9 C 74 % 1004,2 hPa 0,0 l/m 0,0 km/h N 13,2 C 17,9 C 0,0 km/h
21.05.2012 23:00 17,3 C 77 % 1003,9 hPa 0,0 l/m 0,0 km/h N 13,2 C 17,3 C 0,0 km/h
22.05.2012 00:00 16,8 C 78 % 1003,9 hPa 0,0 l/m 0,0 km/h N 12,9 C 16,8 C 0,0 km/h
22.05.2012 01:00 15,3 C 80 % 1003,7 hPa 0,0 l/m 0,0 km/h N 11,9 C 15,3 C 0,0 km/h
22.05.2012 02:00 14,1 C 81 % 1003,4 hPa 0,0 l/m 0,0 km/h N 10,9 C 14,1 C 0,0 km/h
22.05.2012 03:00 13,7 C 81 % 1003,7 hPa 0,0 l/m 0,0 km/h N 10,4 C 13,7 C 0,0 km/h
22.05.2012 04:00 14,1 C 79 % 1003,8 hPa 0,0 l/m 0,0 km/h N 10,5 C 14,1 C 0,0 km/h
22.05.2012 05:00 14,6 C 78 % 1003,7 hPa 0,0 l/m 0,0 km/h N 10,8 C 14,6 C 0,4 km/h
22.05.2012 06:00 15,1 C 78 % 1004,1 hPa 0,0 l/m 0,0 km/h N 11,2 C 15,1 C 0,4 km/h
22.05.2012 07:00 16,4 C 79 % 1004,1 hPa 0,0 l/m 0,4 km/h N 12,6 C 16,4 C 3,2 km/h
22.05.2012 08:00 18,0 C 79 % 1004,1 hPa 0,0 l/m 1,5 km/h N 14,3 C 18,0 C 10,9 km/h
22.05.2012 09:00 18,7 C 78 % 1004,6 hPa 0,3 l/m 0,8 km/h N 14,7 C 18,7 C 8,5 km/h
22.05.2012 10:00 18,0 C 81 % 1005,3 hPa 0,6 l/m 0,5 km/h N 14,6 C 18,0 C 6,8 km/h
22.05.2012 11:00 17,7 C 80 % 1005,7 hPa 0,6 l/m 0,4 km/h N 14,3 C 17,7 C 7,2 km/h
22.05.2012 12:00 18,0 C 79 % 1005,8 hPa 0,6 l/m 0,5 km/h N 14,4 C 18,0 C 5,6 km/h
22.05.2012 13:00 18,4 C 80 % 1005,9 hPa 0,3 l/m 0,4 km/h N 14,8 C 18,4 C 4,4 km/h
22.05.2012 14:00 18,3 C 80 % 1005,8 hPa 2,6 l/m 0,1 km/h N 14,9 C 18,3 C 2,0 km/h
22.05.2012 15:00 18,4 C 81 % 1005,6 hPa 0,0 l/m 0,3 km/h N 15,1 C 18,4 C 3,6 km/h
22.05.2012 16:00 18,7 C 80 % 1005,4 hPa 0,0 l/m 0,4 km/h N 15,1 C 18,7 C 6,4 km/h
22.05.2012 17:00 19,4 C 80 % 1005,2 hPa 0,0 l/m 1,1 km/h N 15,9 C 19,4 C 7,7 km/h
22.05.2012 18:00 20,1 C 77 % 1005,2 hPa 0,0 l/m 1,0 km/h N 15,8 C 20,1 C 6,4 km/h
22.05.2012 19:00 19,2 C 79 % 1005,8 hPa 0,0 l/m 4,3 km/h N 15,3 C 19,2 C 14,5 km/h
22.05.2012 20:00 18,1 C 81 % 1006,1 hPa 0,0 l/m 2,6 km/h N 14,7 C 18,1 C 8,8 km/h
22.05.2012 21:00 17,8 C 81 % 1006,2 hPa 0,2 l/m 4,0 km/h N 14,4 C 17,8 C 14,9 km/h
22.05.2012 22:00 17,4 C 80 % 1006,9 hPa 0,3 l/m 2,2 km/h N 14,0 C 17,4 C 10,5 km/h
22.05.2012 23:00 17,4 C 80 % 1007,0 hPa 0,0 l/m 2,0 km/h N 13,8 C 17,4 C 11,3 km/h
23.05.2012 00:00 17,1 C 80 % 1007,3 hPa 0,0 l/m 2,5 km/h N 13,6 C 17,1 C 10,9 km/h
23.05.2012 01:00 17,4 C 81 % 1007,7 hPa 0,0 l/m 3,2 km/h N 14,0 C 17,4 C 11,3 km/h
23.05.2012 02:00 17,8 C 79 % 1008,0 hPa 0,0 l/m 6,8 km/h N 14,2 C 17,5 C 19,7 km/h
23.05.2012 03:00 17,4 C 80 % 1008,4 hPa 0,0 l/m 3,6 km/h N 14,0 C 17,2 C 11,7 km/h
23.05.2012 04:00 17,3 C 80 % 1008,8 hPa 0,0 l/m 7,3 km/h N 13,8 C 16,6 C 19,7 km/h
23.05.2012 05:00 17,4 C 79 % 1009,3 hPa 0,0 l/m 7,5 km/h N 13,7 C 16,8 C 19,3 km/h
23.05.2012 06:00 17,6 C 78 % 1009,8 hPa 0,0 l/m 10,2 km/h N 13,8 C 16,0 C 27,8 km/h
23.05.2012 07:00 18,3 C 76 % 1010,2 hPa 0,0 l/m 13,1 km/h N 14,0 C 15,8 C 29,4 km/h
23.05.2012 08:00 19,3 C 74 % 1011,0 hPa 0,0 l/m 10,9 km/h N 14,5 C 17,6 C 24,5 km/h
23.05.2012 09:00 20,5 C 70 % 1011,4 hPa 0,0 l/m 11,9 km/h N 14,7 C 18,7 C 24,9 km/h
23.05.2012 10:00 21,3 C 68 % 1012,1 hPa 0,0 l/m 10,5 km/h N 15,2 C 19,9 C 25,3 km/h
23.05.2012 11:00 23,1 C 65 % 1012,1 hPa 0,0 l/m 11,1 km/h N 16,2 C 21,8 C 24,5 km/h
23.05.2012 12:00 24,9 C 59 % 1012,2 hPa 0,0 l/m 8,3 km/h N 16,2 C 24,4 C 22,1 km/h
23.05.2012 13:00 26,3 C 53 % 1011,9 hPa 0,0 l/m 9,4 km/h N 15,8 C 25,8 C 22,1 km/h
23.05.2012 14:00 25,6 C 53 % 1011,6 hPa 0,0 l/m 9,9 km/h N 15,2 C 24,8 C 26,9 km/h
23.05.2012 15:00 21,6 C 73 % 1012,1 hPa 0,5 l/m 0,2 km/h N 16,5 C 21,6 C 3,2 km/h
23.05.2012 16:00 21,2 C 80 % 1012,2 hPa 0,0 l/m 1,0 km/h N 17,6 C 21,2 C 7,6 km/h
23.05.2012 17:00 23,8 C 65 % 1012,0 hPa 0,3 l/m 1,6 km/h N 16,5 C 23,8 C 9,6 km/h
23.05.2012 18:00 27,6 C 38 % 1012,2 hPa 0,3 l/m 11,5 km/h N 11,8 C 26,8 C 25,0 km/h
23.05.2012 19:00 26,8 C 43 % 1013,3 hPa 0,0 l/m 5,3 km/h N 13,1 C 26,7 C 20,1 km/h
23.05.2012 20:00 22,5 C 59 % 1014,8 hPa 0,3 l/m 1,5 km/h N 14,1 C 22,5 C 8,1 km/h
23.05.2012 21:00 19,9 C 73 % 1015,4 hPa 0,0 l/m 0,2 km/h N 14,8 C 19,9 C 3,6 km/h
23.05.2012 22:00 19,0 C 75 % 1015,7 hPa 0,0 l/m 0,3 km/h N 14,4 C 19,0 C 4,0 km/h
23.05.2012 23:00 19,2 C 71 % 1015,8 hPa 0,3 l/m 0,1 km/h N 13,8 C 19,2 C 2,4 km/h
24.05.2012 00:00 19,2 C 66 % 1015,8 hPa 0,0 l/m 0,9 km/h N 12,7 C 19,2 C 6,0 km/h
24.05.2012 01:00 20,6 C 58 % 1015,7 hPa 0,0 l/m 3,7 km/h N 12,0 C 20,6 C 12,9 km/h
24.05.2012 02:00 20,7 C 58 % 1016,0 hPa 0,0 l/m 6,8 km/h N 12,0 C 20,5 C 18,1 km/h
24.05.2012 03:00 19,9 C 62 % 1016,3 hPa 0,0 l/m 5,9 km/h N 12,3 C 19,8 C 16,1 km/h
24.05.2012 04:00 19,4 C 64 % 1016,5 hPa 0,0 l/m 4,1 km/h N 12,3 C 19,4 C 12,1 km/h
24.05.2012 05:00 19,2 C 66 % 1016,7 hPa 0,0 l/m 5,4 km/h N 12,6 C 19,2 C 15,7 km/h
24.05.2012 06:00 19,2 C 67 % 1017,0 hPa 0,0 l/m 5,4 km/h N 12,9 C 19,2 C 17,7 km/h
24.05.2012 07:00 19,5 C 68 % 1017,5 hPa 0,0 l/m 8,1 km/h N 13,4 C 18,8 C 21,3 km/h
24.05.2012 08:00 20,2 C 68 % 1017,8 hPa 0,0 l/m 9,1 km/h N 14,2 C 19,2 C 22,5 km/h
24.05.2012 09:00 21,6 C 67 % 1017,9 hPa 0,0 l/m 10,3 km/h N 15,3 C 20,4 C 22,9 km/h
24.05.2012 10:00 22,8 C 66 % 1017,9 hPa 0,0 l/m 12,0 km/h N 16,0 C 21,3 C 25,7 km/h
24.05.2012 11:00 23,8 C 63 % 1017,6 hPa 0,0 l/m 10,1 km/h N 16,1 C 22,8 C 23,3 km/h
24.05.2012 12:00 25,0 C 52 % 1017,2 hPa 0,0 l/m 9,7 km/h N 14,5 C 24,3 C 26,1 km/h
24.05.2012 13:00 25,3 C 50 % 1016,9 hPa 0,0 l/m 11,5 km/h N 14,0 C 24,3 C 26,1 km/h
24.05.2012 14:00 25,7 C 47 % 1016,2 hPa 0,0 l/m 12,5 km/h N 13,3 C 24,5 C 26,5 km/h
24.05.2012 15:00 26,1 C 39 % 1015,8 hPa 0,0 l/m 12,8 km/h N 11,1 C 25,0 C 30,6 km/h
24.05.2012 16:00 25,8 C 37 % 1016,3 hPa 0,0 l/m 13,1 km/h N 10,0 C 24,6 C 31,4 km/h
24.05.2012 17:00 25,3 C 36 % 1016,5 hPa 0,0 l/m 12,7 km/h N 9,2 C 24,0 C 28,2 km/h
24.05.2012 18:00 24,4 C 37 % 1016,7 hPa 0,0 l/m 12,8 km/h N 8,8 C 23,0 C 30,2 km/h
24.05.2012 19:00 23,0 C 37 % 1017,6 hPa 0,0 l/m 11,5 km/h N 7,5 C 21,6 C 29,8 km/h
24.05.2012 20:00 21,9 C 40 % 1018,3 hPa 0,0 l/m 10,7 km/h N 7,5 C 20,6 C 24,9 km/h
24.05.2012 21:00 20,8 C 42 % 1019,3 hPa 0,0 l/m 8,1 km/h N 7,2 C 20,2 C 22,1 km/h
24.05.2012 22:00 20,0 C 41 % 1019,9 hPa 0,0 l/m 8,5 km/h N 6,4 C 19,1 C 22,1 km/h
24.05.2012 23:00 19,1 C 41 % 1020,2 hPa 0,0 l/m 7,2 km/h N 5,6 C 18,7 C 19,3 km/h
25.05.2012 00:00 18,1 C 45 % 1020,2 hPa 0,0 l/m 5,1 km/h N 5,8 C 18,1 C 15,7 km/h
25.05.2012 01:00 17,1 C 48 % 1020,2 hPa 0,0 l/m 5,2 km/h N 5,9 C 17,1 C 14,9 km/h
25.05.2012 02:00 16,1 C 51 % 1020,0 hPa 0,0 l/m 5,2 km/h N 6,0 C 16,1 C 14,1 km/h
25.05.2012 03:00 15,6 C 53 % 1019,8 hPa 0,0 l/m 6,5 km/h N 6,1 C 15,4 C 17,7 km/h
25.05.2012 04:00 14,8 C 56 % 1019,7 hPa 0,0 l/m 5,6 km/h N 6,1 C 14,8 C 18,1 km/h
25.05.2012 05:00 14,3 C 58 % 1019,9 hPa 0,0 l/m 5,1 km/h N 6,2 C 14,2 C 14,5 km/h
25.05.2012 06:00 14,5 C 59 % 1020,2 hPa 0,0 l/m 6,4 km/h N 6,5 C 14,3 C 18,1 km/h
25.05.2012 07:00 14,8 C 60 % 1020,5 hPa 0,0 l/m 7,8 km/h N 7,1 C 14,0 C 18,9 km/h
25.05.2012 08:00 15,9 C 60 % 1020,9 hPa 0,0 l/m 8,7 km/h N 8,1 C 14,7 C 20,5 km/h
25.05.2012 09:00 17,6 C 58 % 1021,0 hPa 0,0 l/m 8,6 km/h N 9,2 C 16,6 C 21,7 km/h
25.05.2012 10:00 19,5 C 53 % 1020,6 hPa 0,0 l/m 9,3 km/h N 9,6 C 18,4 C 23,3 km/h
25.05.2012 11:00 20,1 C 47 % 1020,3 hPa 0,0 l/m 10,3 km/h N 8,2 C 18,6 C 24,9 km/h
25.05.2012 12:00 20,8 C 42 % 1020,0 hPa 0,0 l/m 10,9 km/h N 7,5 C 19,2 C 26,1 km/h
25.05.2012 13:00 21,5 C 38 % 1019,6 hPa 0,0 l/m 11,1 km/h N 6,3 C 19,9 C 27,8 km/h
25.05.2012 14:00 21,8 C 35 % 1019,3 hPa 0,0 l/m 13,0 km/h N 5,7 C 19,9 C 27,4 km/h
25.05.2012 15:00 22,2 C 34 % 1018,9 hPa 0,0 l/m 12,6 km/h N 5,5 C 20,4 C 29,8 km/h
25.05.2012 16:00 22,2 C 35 % 1018,7 hPa 0,0 l/m 11,9 km/h N 5,8 C 20,7 C 27,8 km/h
25.05.2012 17:00 21,9 C 36 % 1018,4 hPa 0,0 l/m 10,5 km/h N 6,0 C 20,7 C 28,1 km/h
25.05.2012 18:00 21,6 C 36 % 1018,4 hPa 0,0 l/m 9,5 km/h N 5,7 C 20,5 C 26,5 km/h
25.05.2012 19:00 20,4 C 38 % 1018,6 hPa 0,0 l/m 8,7 km/h N 5,4 C 19,5 C 22,5 km/h
25.05.2012 20:00 19,2 C 39 % 1018,8 hPa 0,0 l/m 7,4 km/h N 4,7 C 18,7 C 20,1 km/h
25.05.2012 21:00 18,3 C 40 % 1019,2 hPa 0,0 l/m 6,0 km/h N 4,6 C 18,2 C 17,7 km/h
25.05.2012 22:00 17,6 C 44 % 1019,5 hPa 0,0 l/m 4,6 km/h N 5,0 C 17,6 C 14,1 km/h
25.05.2012 23:00 15,9 C 48 % 1019,8 hPa 0,0 l/m 1,2 km/h N 4,9 C 15,9 C 5,6 km/h
26.05.2012 00:00 15,4 C 49 % 1020,0 hPa 0,0 l/m 2,8 km/h N 4,8 C 15,4 C 10,5 km/h
26.05.2012 01:00 14,4 C 52 % 1019,9 hPa 0,0 l/m 0,6 km/h N 4,7 C 14,4 C 4,8 km/h
26.05.2012 02:00 12,6 C 58 % 1019,7 hPa 0,0 l/m 0,5 km/h N 4,4 C 12,6 C 4,4 km/h
26.05.2012 03:00 11,4 C 61 % 1019,5 hPa 0,0 l/m 0,0 km/h N 4,1 C 11,4 C 1,6 km/h
26.05.2012 04:00 9,7 C 67 % 1019,6 hPa 0,0 l/m 0,0 km/h N 3,9 C 9,7 C 0,0 km/h
26.05.2012 05:00 8,3 C 74 % 1019,7 hPa 0,0 l/m 0,0 km/h N 3,8 C 8,3 C 0,0 km/h
26.05.2012 06:00 8,2 C 77 % 1019,8 hPa 0,0 l/m 0,0 km/h N 4,4 C 8,2 C 0,0 km/h
26.05.2012 07:00 11,8 C 68 % 1019,9 hPa 0,0 l/m 1,5 km/h N 5,9 C 11,8 C 5,6 km/h
26.05.2012 08:00 15,6 C 53 % 1019,9 hPa 0,0 l/m 3,4 km/h N 5,9 C 15,6 C 10,1 km/h
26.05.2012 09:00 17,1 C 48 % 1019,8 hPa 0,0 l/m 4,3 km/h N 5,9 C 17,1 C 12,1 km/h
26.05.2012 10:00 18,8 C 42 % 1019,7 hPa 0,0 l/m 3,5 km/h N 5,5 C 18,8 C 12,5 km/h
26.05.2012 11:00 19,0 C 41 % 1019,7 hPa 0,0 l/m 4,3 km/h N 5,5 C 19,0 C 17,3 km/h
26.05.2012 12:00 20,1 C 39 % 1019,4 hPa 0,0 l/m 4,3 km/h N 5,7 C 20,1 C 14,5 km/h
26.05.2012 13:00 21,0 C 36 % 1019,0 hPa 0,0 l/m 5,4 km/h N 5,5 C 21,0 C 17,7 km/h
26.05.2012 14:00 21,4 C 36 % 1018,6 hPa 0,0 l/m 7,9 km/h N 5,8 C 20,8 C 20,5 km/h
26.05.2012 15:00 21,9 C 34 % 1018,1 hPa 0,0 l/m 5,8 km/h N 5,4 C 21,7 C 16,5 km/h
26.05.2012 16:00 22,1 C 32 % 1017,9 hPa 0,0 l/m 7,1 km/h N 4,7 C 21,8 C 19,7 km/h
26.05.2012 17:00 22,5 C 32 % 1017,4 hPa 0,0 l/m 7,8 km/h N 4,9 C 22,1 C 22,1 km/h
26.05.2012 18:00 22,0 C 33 % 1017,3 hPa 0,0 l/m 7,6 km/h N 4,8 C 21,5 C 18,9 km/h
26.05.2012 19:00 21,3 C 34 % 1017,3 hPa 0,0 l/m 5,7 km/h N 4,6 C 21,3 C 18,9 km/h
26.05.2012 20:00 19,8 C 37 % 1017,5 hPa 0,0 l/m 3,9 km/h N 4,6 C 19,8 C 12,9 km/h
26.05.2012 21:00 18,7 C 40 % 1017,9 hPa 0,0 l/m 2,5 km/h N 4,7 C 18,7 C 10,9 km/h
26.05.2012 22:00 16,6 C 45 % 1018,2 hPa 0,0 l/m 0,9 km/h N 4,5 C 16,6 C 5,2 km/h
26.05.2012 23:00 15,2 C 49 % 1018,3 hPa 0,0 l/m 0,3 km/h N 4,5 C 15,2 C 3,6 km/h
27.05.2012 00:00 13,8 C 55 % 1018,2 hPa 0,0 l/m 0,0 km/h N 4,8 C 13,8 C 1,2 km/h
27.05.2012 01:00 12,9 C 57 % 1017,9 hPa 0,0 l/m 0,2 km/h N 4,6 C 12,9 C 3,2 km/h
27.05.2012 02:00 13,0 C 57 % 1017,7 hPa 0,0 l/m 0,3 km/h N 4,5 C 13,0 C 5,2 km/h
27.05.2012 03:00 12,2 C 59 % 1017,5 hPa 0,0 l/m 0,1 km/h N 4,5 C 12,2 C 1,2 km/h
27.05.2012 04:00 10,6 C 66 % 1017,7 hPa 0,0 l/m 0,0 km/h N 4,4 C 10,6 C 1,2 km/h
27.05.2012 05:00 9,4 C 72 % 1018,0 hPa 0,0 l/m 0,0 km/h N 4,5 C 9,4 C 0,8 km/h
27.05.2012 06:00 9,7 C 75 % 1018,4 hPa 0,0 l/m 0,4 km/h N 5,3 C 9,7 C 3,6 km/h
27.05.2012 07:00 12,2 C 67 % 1018,7 hPa 0,0 l/m 0,7 km/h N 6,3 C 12,2 C 5,2 km/h
27.05.2012 08:00 16,4 C 54 % 1018,7 hPa 0,0 l/m 2,0 km/h N 6,9 C 16,4 C 6,8 km/h
27.05.2012 09:00 18,8 C 45 % 1018,5 hPa 0,0 l/m 1,5 km/h N 6,6 C 18,8 C 6,4 km/h
27.05.2012 10:00 20,2 C 43 % 1018,3 hPa 0,0 l/m 2,9 km/h N 7,1 C 20,2 C 11,3 km/h
27.05.2012 11:00 21,1 C 42 % 1017,8 hPa 0,0 l/m 2,7 km/h N 7,7 C 21,1 C 11,3 km/h
27.05.2012 12:00 22,0 C 36 % 1017,6 hPa 0,0 l/m 4,0 km/h N 6,1 C 22,0 C 16,1 km/h
27.05.2012 13:00 22,3 C 36 % 1017,2 hPa 0,0 l/m 4,4 km/h N 6,4 C 22,3 C 16,5 km/h
27.05.2012 14:00 22,4 C 31 % 1016,8 hPa 0,0 l/m 3,3 km/h N 4,4 C 22,4 C 14,5 km/h
27.05.2012 15:00 22,7 C 32 % 1016,2 hPa 0,0 l/m 3,1 km/h N 5,0 C 22,7 C 14,9 km/h
27.05.2012 16:00 22,5 C 32 % 1015,8 hPa 0,0 l/m 2,3 km/h N 5,0 C 22,5 C 11,3 km/h
27.05.2012 17:00 23,3 C 31 % 1015,4 hPa 0,0 l/m 1,1 km/h N 5,0 C 23,3 C 6,0 km/h
27.05.2012 18:00 24,0 C 28 % 1014,8 hPa 0,0 l/m 2,2 km/h N 4,3 C 24,0 C 8,0 km/h
27.05.2012 19:00 22,7 C 28 % 1014,4 hPa 0,0 l/m 2,0 km/h N 3,3 C 22,7 C 7,6 km/h
27.05.2012 20:00 20,8 C 35 % 1014,4 hPa 0,0 l/m 0,0 km/h N 4,7 C 20,8 C 1,6 km/h
27.05.2012 21:00 16,5 C 44 % 1014,6 hPa 0,0 l/m 0,0 km/h N 4,0 C 16,5 C 0,8 km/h
27.05.2012 22:00 14,0 C 52 % 1014,6 hPa 0,0 l/m 0,6 km/h N 4,2 C 14,0 C 4,8 km/h
27.05.2012 23:00 13,6 C 52 % 1014,8 hPa 0,0 l/m 0,6 km/h N 4,0 C 13,6 C 4,0 km/h
Min-Datum _ 26.05.12 27.05.12 22.05.12 - 21.05.12 - 27.05.12 26.05.12 21.05.12
_ Min-Zeit 05:45 18:30 02:15 - 00:00 - 19:30 05:45 00:00
Minimum _ 7,9 C 27 % 1003,3 hPa - 0,0 km/h - 3,1 C 7,9 C 0,0 km/h
Max-Datum _ 23.05.12 22.05.12 25.05.12 22.05.12 23.05.12 - 23.05.12 23.05.12 23.05.12
_ Max-Zeit 18:30 01:30 08:30 14:00 07:15 - 17:15 18:15 14:45
Maximum _ 27,8 C 81 % 1021,0 hPa 2,6 l/m 14,8 km/h
N
- 18,8 C 27,1 C 40,2 km/h
N
Durchschnitt _ 18,9 C 58 % 1013,5 hPa #7,0 l/m 4,6 km/h N 9,7 C 18,6 C 13,5 km/h